createdAt,value
2022-11-01T07:06:57.605Z,13.70
2022-11-01T07:09:57.370Z,13.98
2022-11-01T07:12:47.681Z,13.79
2022-11-01T07:15:37.384Z,13.64
2022-11-01T07:18:32.041Z,13.98
2022-11-01T07:21:19.175Z,13.94
2022-11-01T07:24:21.629Z,14.26
2022-11-01T07:27:20.555Z,14.09
2022-11-01T07:30:39.202Z,14.18
2022-11-01T07:33:25.139Z,14.18
2022-11-01T07:36:20.879Z,14.22
2022-11-01T07:39:12.884Z,14.39
2022-11-01T07:42:08.728Z,14.40
2022-11-01T07:45:06.906Z,14.52
2022-11-01T07:49:16.248Z,14.73
2022-11-01T07:51:26.695Z,15.09
2022-11-01T07:54:25.266Z,14.90
2022-11-01T07:57:18.152Z,14.65
2022-11-01T08:03:19.796Z,14.82
2022-11-01T08:06:10.519Z,14.65
2022-11-01T08:09:21.234Z,14.76
2022-11-01T08:12:14.753Z,14.86
2022-11-01T08:15:19.743Z,15.25
2022-11-01T08:18:07.547Z,15.50
2022-11-01T08:21:08.171Z,15.64
2022-11-01T08:24:02.295Z,16.10
2022-11-01T08:26:51.468Z,16.03
2022-11-01T08:29:44.477Z,15.75
2022-11-01T08:32:42.528Z,15.85
2022-11-01T08:35:37.159Z,16.03
2022-11-01T08:38:33.951Z,16.12
2022-11-01T08:41:24.128Z,16.06
2022-11-01T08:44:30.228Z,16.17
2022-11-01T08:47:31.603Z,16.15
2022-11-01T08:50:20.063Z,16.14
2022-11-01T08:53:15.281Z,16.29
2022-11-01T08:56:07.616Z,16.69
2022-11-01T08:59:13.428Z,16.43
2022-11-01T09:02:08.750Z,16.60
2022-11-01T09:05:04.427Z,16.37
2022-11-01T09:08:05.858Z,16.42
2022-11-01T09:10:51.635Z,16.63
2022-11-01T09:13:49.936Z,16.63
2022-11-01T09:16:48.041Z,16.51
2022-11-01T09:21:09.783Z,16.74
2022-11-01T09:23:03.068Z,16.79
2022-11-01T09:25:54.918Z,16.83
2022-11-01T09:28:46.700Z,16.84
2022-11-01T09:31:37.281Z,16.80
2022-11-01T09:34:38.209Z,16.79
2022-11-01T09:39:04.643Z,17.18
2022-11-01T09:40:56.933Z,18.17
2022-11-01T09:44:27.969Z,18.63
2022-11-01T09:47:34.422Z,18.90
2022-11-01T09:51:12.438Z,19.31
2022-11-01T10:05:12.000Z,20.20
2022-11-01T10:35:01.788Z,20.12
2022-11-01T10:41:55.361Z,19.14
2022-11-01T10:45:17.877Z,18.76
2022-11-01T10:48:16.169Z,18.86
2022-11-01T10:54:17.275Z,18.58
2022-11-01T10:57:17.352Z,18.39
2022-11-01T11:00:25.403Z,18.49
2022-11-01T11:03:28.605Z,18.65
2022-11-01T11:06:20.077Z,18.65
2022-11-01T11:09:43.818Z,18.59
2022-11-01T11:13:40.790Z,20.93
2022-11-01T11:52:25.488Z,32.38
2022-11-01T11:59:26.526Z,32.50
2022-11-01T12:03:30.140Z,31.31
2022-11-01T12:11:39.679Z,30.69
2022-11-01T12:13:57.906Z,28.25
2022-11-01T12:55:06.186Z,31.50
2022-11-01T12:58:18.985Z,29.40
2022-11-01T19:05:36.555Z,11.37
2022-11-01T19:08:26.596Z,11.35
2022-11-01T19:11:19.058Z,11.59
2022-11-01T19:14:08.557Z,11.24
2022-11-01T19:16:54.713Z,11.29
2022-11-01T19:19:41.621Z,11.33
2022-11-01T19:22:34.292Z,11.45
2022-11-01T19:25:24.769Z,11.12
2022-11-01T19:28:34.954Z,11.29
2022-11-01T19:31:27.312Z,11.46
2022-11-01T19:34:16.384Z,11.02
2022-11-01T19:37:06.897Z,10.93
2022-11-01T19:39:52.877Z,10.99
2022-11-01T19:42:39.335Z,10.91
2022-11-01T19:45:29.819Z,11.23
2022-11-01T19:48:25.943Z,10.99
2022-11-01T19:51:19.986Z,11.04
2022-11-01T19:54:19.553Z,10.80
2022-11-01T20:01:02.042Z,10.75
2022-11-01T20:04:17.157Z,10.89
2022-11-01T20:07:29.367Z,10.71
2022-11-01T20:10:51.955Z,10.81
2022-11-01T20:13:59.253Z,10.76
2022-11-01T20:27:21.725Z,10.59
2022-11-01T20:30:33.217Z,10.56
2022-11-01T20:33:51.141Z,10.47
2022-11-01T20:37:08.120Z,10.80
2022-11-01T20:40:34.030Z,10.47
2022-11-01T20:43:30.704Z,10.33
2022-11-01T20:46:27.826Z,10.56
2022-11-01T20:49:54.446Z,10.46
2022-11-01T20:55:54.558Z,10.37
2022-11-01T20:59:04.754Z,10.28
2022-11-01T21:02:13.296Z,10.07
2022-11-01T21:05:32.921Z,10.33
2022-11-01T21:09:15.535Z,10.24
2022-11-01T21:11:57.431Z,10.24
2022-11-01T21:14:58.861Z,9.99
2022-11-01T21:17:56.350Z,10.09
2022-11-01T21:21:29.298Z,9.72
2022-11-01T21:28:56.979Z,10.08
2022-11-01T21:33:08.984Z,10.23
2022-11-01T21:34:58.059Z,9.75
2022-11-01T21:38:02.293Z,10.12
2022-11-01T21:42:30.334Z,9.90
2022-11-01T21:44:54.261Z,10.47
2022-11-01T21:48:22.308Z,10.29
2022-11-01T21:51:22.153Z,9.99
2022-11-01T21:54:40.669Z,9.89
2022-11-01T21:57:45.299Z,10.29
2022-11-01T22:00:55.237Z,9.92
2022-11-01T22:05:21.816Z,10.26
2022-11-01T22:07:37.392Z,10.12
2022-11-01T22:10:48.608Z,10.00
2022-11-01T22:14:06.762Z,10.11
2022-11-01T22:17:22.660Z,10.17
2022-11-01T22:20:46.804Z,9.81
2022-11-01T22:24:20.073Z,9.92
2022-11-01T22:27:10.238Z,9.96
2022-11-01T22:30:12.830Z,9.78
2022-11-01T22:36:26.035Z,10.08
2022-11-01T22:39:25.936Z,9.94
2022-11-01T22:44:13.323Z,9.54
2022-11-01T22:49:25.910Z,9.98
2022-11-01T22:52:43.265Z,9.74
2022-11-01T22:59:13.220Z,9.77
2022-11-01T23:04:17.375Z,10.01
2022-11-01T23:14:43.662Z,9.97
2022-11-01T23:16:49.293Z,9.80
2022-11-01T23:20:44.470Z,9.73
2022-11-01T23:27:33.125Z,9.85
2022-11-01T23:30:38.603Z,9.85
2022-11-01T23:34:00.293Z,9.92
2022-11-01T23:36:57.279Z,9.80
2022-11-01T23:40:45.145Z,9.87
2022-11-01T23:46:14.924Z,10.08
2022-11-01T23:49:27.431Z,10.04
2022-11-01T23:56:28.003Z,9.98
2022-11-01T23:59:16.016Z,10.04
